createdAt,value
2023-04-15T00:01:11.846Z,7.43
2023-04-15T00:03:38.967Z,5.90
2023-04-15T00:06:06.150Z,4.45
2023-04-15T00:08:33.271Z,5.80
2023-04-15T00:11:02.894Z,3.67
2023-04-15T00:13:30.325Z,9.95
2023-04-15T00:15:57.386Z,4.35
2023-04-15T00:18:24.918Z,5.40
2023-04-15T00:20:52.505Z,3.60
2023-04-15T00:23:19.456Z,5.05
2023-04-15T00:25:46.958Z,3.67
2023-04-15T00:28:14.095Z,5.28
2023-04-15T00:30:40.826Z,4.13
2023-04-15T00:33:07.963Z,4.03
2023-04-15T00:35:34.843Z,3.63
2023-04-15T00:38:01.567Z,4.78
2023-04-15T00:40:28.274Z,3.13
2023-04-15T00:42:55.199Z,6.32
2023-04-15T00:45:22.010Z,4.72
2023-04-15T00:47:48.763Z,4.70
2023-04-15T00:50:15.549Z,4.78
2023-04-15T00:52:42.315Z,5.40
2023-04-15T00:55:10.106Z,5.45
2023-04-15T00:57:37.246Z,2.92
2023-04-15T01:00:05.804Z,4.63
2023-04-15T01:02:33.654Z,3.30
2023-04-15T01:05:00.650Z,5.65
2023-04-15T01:07:27.914Z,4.75
2023-04-15T01:09:54.713Z,5.10
2023-04-15T01:12:21.618Z,3.10
2023-04-15T01:14:48.348Z,9.05
2023-04-15T01:17:15.150Z,8.52
2023-04-15T01:19:42.325Z,5.18
2023-04-15T01:22:09.254Z,6.20
2023-04-15T01:24:37.016Z,6.90
2023-04-15T01:27:05.488Z,6.65
2023-04-15T01:29:35.283Z,3.95
2023-04-15T01:32:02.059Z,3.05
2023-04-15T01:34:28.950Z,3.33
2023-04-15T01:36:55.667Z,5.70
2023-04-15T01:39:22.696Z,4.35
2023-04-15T01:41:49.421Z,4.50
2023-04-15T01:44:16.439Z,5.90
2023-04-15T01:46:43.308Z,6.97
2023-04-15T01:49:10.105Z,5.05
2023-04-15T01:51:36.911Z,6.07
2023-04-15T01:54:04.089Z,7.72
2023-04-15T01:56:30.927Z,8.45
2023-04-15T01:58:57.753Z,8.90
2023-04-15T02:01:25.100Z,7.18
2023-04-15T02:03:52.246Z,7.05
2023-04-15T02:06:19.311Z,6.32
2023-04-15T02:08:45.966Z,5.32
2023-04-15T02:11:12.659Z,7.75
2023-04-15T02:13:39.378Z,8.32
2023-04-15T02:16:19.274Z,6.18
2023-04-15T02:18:49.130Z,6.88
2023-04-15T02:21:15.877Z,7.72
2023-04-15T02:23:44.007Z,6.68
2023-04-15T02:26:10.976Z,10.25
2023-04-15T02:28:37.679Z,4.55
2023-04-15T02:31:08.246Z,5.65
2023-04-15T02:33:35.639Z,5.55
2023-04-15T02:36:02.365Z,6.03
2023-04-15T02:38:29.359Z,4.50
2023-04-15T02:40:56.628Z,6.75
2023-04-15T02:43:23.649Z,4.72
2023-04-15T02:45:51.229Z,6.53
2023-04-15T02:48:19.884Z,4.47
2023-04-15T02:50:48.057Z,4.15
2023-04-15T02:53:14.822Z,4.50
2023-04-15T02:55:42.836Z,4.57
2023-04-15T02:58:09.679Z,4.10
2023-04-15T03:00:36.399Z,4.40
2023-04-15T03:03:05.326Z,3.25
2023-04-15T03:05:32.249Z,3.95
2023-04-15T03:07:58.979Z,4.35
2023-04-15T03:10:25.889Z,4.05
2023-04-15T03:12:52.669Z,4.90
2023-04-15T03:15:19.431Z,4.18
2023-04-15T03:17:46.321Z,4.05
2023-04-15T03:20:13.385Z,7.85
2023-04-15T03:22:40.248Z,4.75
2023-04-15T03:25:07.814Z,5.68
2023-04-15T03:27:34.593Z,5.68
2023-04-15T03:30:01.553Z,5.70
2023-04-15T03:32:28.243Z,4.75
2023-04-15T03:34:54.931Z,3.17
2023-04-15T03:37:21.661Z,5.60
2023-04-15T03:39:48.571Z,4.32
2023-04-15T03:42:15.635Z,6.57
2023-04-15T03:44:42.303Z,3.88
2023-04-15T03:47:09.023Z,4.55
2023-04-15T03:49:37.040Z,3.33
2023-04-15T03:52:03.809Z,10.30
2023-04-15T03:54:30.609Z,4.93
2023-04-15T03:56:57.750Z,4.85
2023-04-15T03:59:24.420Z,4.45
2023-04-15T04:01:51.384Z,5.47
2023-04-15T04:04:18.360Z,5.93
2023-04-15T04:06:45.195Z,7.70
2023-04-15T04:09:11.898Z,5.32
2023-04-15T04:11:38.814Z,5.90
2023-04-15T04:14:05.753Z,7.32
2023-04-15T04:16:32.546Z,4.70
2023-04-15T04:18:59.479Z,5.70
2023-04-15T04:21:26.916Z,5.50
2023-04-15T04:23:53.689Z,5.05
2023-04-15T04:26:20.663Z,6.15
2023-04-15T04:28:47.385Z,6.93
2023-04-15T04:31:14.106Z,6.78
2023-04-15T04:33:40.944Z,8.27
2023-04-15T04:36:07.901Z,9.60
2023-04-15T04:38:34.603Z,6.07
2023-04-15T04:41:01.336Z,4.55
2023-04-15T04:43:28.105Z,4.75
2023-04-15T04:45:54.793Z,6.55
2023-04-15T04:48:21.663Z,7.88
2023-04-15T04:50:48.453Z,8.85
2023-04-15T04:53:16.259Z,8.80
2023-04-15T04:55:42.951Z,9.05
2023-04-15T04:58:09.770Z,10.18
2023-04-15T05:00:38.040Z,9.13
2023-04-15T05:03:05.286Z,7.28
2023-04-15T05:05:32.044Z,8.60
2023-04-15T05:07:59.095Z,8.18
2023-04-15T05:10:26.175Z,5.85
2023-04-15T05:12:52.972Z,6.00
2023-04-15T05:15:19.718Z,5.15
2023-04-15T05:17:46.759Z,5.93
2023-04-15T05:20:13.828Z,6.93
2023-04-15T05:22:40.930Z,6.30
2023-04-15T05:25:08.686Z,7.82
2023-04-15T05:27:35.662Z,9.20
2023-04-15T05:30:02.562Z,6.57
2023-04-15T05:32:29.287Z,6.65
2023-04-15T05:34:56.406Z,7.65
2023-04-15T05:37:23.077Z,9.85
2023-04-15T05:39:49.806Z,10.85
2023-04-15T05:42:16.893Z,9.80
2023-04-15T05:44:43.753Z,10.85
2023-04-15T05:47:10.948Z,8.00
2023-04-15T05:49:37.725Z,11.63
2023-04-15T05:52:04.486Z,9.30
2023-04-15T05:54:31.671Z,10.98
2023-04-15T05:56:59.161Z,9.23
2023-04-15T05:59:26.030Z,19.92
2023-04-15T06:01:52.971Z,16.40
2023-04-15T06:04:19.980Z,13.77
2023-04-15T06:06:47.151Z,9.25
2023-04-15T06:09:13.886Z,8.68
2023-04-15T06:11:41.360Z,8.60
2023-04-15T06:14:08.338Z,7.10
2023-04-15T06:16:36.695Z,8.10
2023-04-15T06:19:04.259Z,7.03
2023-04-15T06:21:31.614Z,5.78
2023-04-15T06:24:01.496Z,5.97
2023-04-15T06:26:28.410Z,7.32
2023-04-15T06:28:55.664Z,4.28
2023-04-15T06:31:22.520Z,4.35
2023-04-15T06:33:49.385Z,3.30
2023-04-15T06:36:16.327Z,4.63
2023-04-15T06:38:43.043Z,5.72
2023-04-15T06:41:09.787Z,2.78
2023-04-15T06:43:36.702Z,4.70
2023-04-15T06:46:03.781Z,4.53
2023-04-15T06:48:30.675Z,4.88
2023-04-15T06:50:58.810Z,5.25
2023-04-15T06:53:28.050Z,3.35
2023-04-15T06:55:54.779Z,3.90
2023-04-15T06:58:21.827Z,3.30
2023-04-15T07:00:49.154Z,3.35
2023-04-15T07:03:16.041Z,2.90
2023-04-15T07:05:42.754Z,4.43
2023-04-15T07:08:09.560Z,3.65
2023-04-15T07:10:36.382Z,5.00
2023-04-15T07:13:03.164Z,3.00
2023-04-15T07:15:29.959Z,3.78
2023-04-15T07:17:56.771Z,5.40
2023-04-15T07:20:23.482Z,5.47
2023-04-15T07:22:50.215Z,4.47
2023-04-15T07:25:17.776Z,3.35
2023-04-15T07:27:44.661Z,5.20
2023-04-15T07:30:12.614Z,3.67
2023-04-15T07:32:39.426Z,5.95
2023-04-15T07:35:06.370Z,3.75
2023-04-15T07:37:33.706Z,2.63
2023-04-15T07:40:00.530Z,4.10
2023-04-15T07:42:27.635Z,4.70
2023-04-15T07:44:54.591Z,4.13
2023-04-15T07:47:22.028Z,3.08
2023-04-15T07:49:49.271Z,3.72
2023-04-15T07:52:15.951Z,3.60
2023-04-15T07:54:42.782Z,3.25
2023-04-15T07:57:09.538Z,6.70
2023-04-15T07:59:36.471Z,3.92
2023-04-15T08:02:03.664Z,4.68
2023-04-15T08:04:31.248Z,3.97
2023-04-15T08:06:58.389Z,4.05
2023-04-15T08:09:25.111Z,7.53
2023-04-15T08:11:51.813Z,3.70
2023-04-15T08:14:18.741Z,4.35
2023-04-15T08:16:45.551Z,3.65
2023-04-15T08:19:12.298Z,4.60
2023-04-15T08:21:38.996Z,3.28
2023-04-15T08:24:06.955Z,3.63
2023-04-15T08:26:33.780Z,5.53
2023-04-15T08:29:00.866Z,6.35
2023-04-15T08:31:30.069Z,3.45
2023-04-15T08:33:57.699Z,5.55
2023-04-15T08:36:24.432Z,2.95
2023-04-15T08:38:51.287Z,3.70
2023-04-15T08:41:23.717Z,6.43
2023-04-15T08:43:57.534Z,3.75
2023-04-15T08:46:24.859Z,5.45
2023-04-15T08:48:52.457Z,4.40
2023-04-15T08:51:19.735Z,4.38
2023-04-15T08:53:47.522Z,5.00
2023-04-15T08:56:16.836Z,4.35
2023-04-15T08:58:47.804Z,6.88
2023-04-15T09:01:14.725Z,3.45
2023-04-15T09:03:42.892Z,4.13
2023-04-15T09:06:10.036Z,6.82
2023-04-15T09:08:36.850Z,5.50
2023-04-15T09:11:03.941Z,5.18
2023-04-15T09:13:31.126Z,7.80
2023-04-15T09:16:00.594Z,6.30
2023-04-15T09:18:29.701Z,6.95
2023-04-15T09:20:57.401Z,9.07
2023-04-15T09:23:24.246Z,3.85
2023-04-15T09:25:51.299Z,5.80
2023-04-15T09:28:25.798Z,5.00
2023-04-15T09:33:23.600Z,4.90
2023-04-15T09:35:58.990Z,6.13
2023-04-15T09:38:25.709Z,5.35
2023-04-15T09:40:52.539Z,8.85
2023-04-15T09:43:19.389Z,6.65
2023-04-15T09:45:53.950Z,4.90
2023-04-15T09:48:27.371Z,5.70
2023-04-15T09:50:54.808Z,5.13
2023-04-15T09:53:22.794Z,4.53
2023-04-15T09:55:54.774Z,5.93
2023-04-15T09:58:27.394Z,6.50
2023-04-15T10:00:56.504Z,7.20
2023-04-15T10:03:32.442Z,5.45
2023-04-15T10:06:01.021Z,6.10
2023-04-15T10:08:30.124Z,9.85
2023-04-15T10:10:57.688Z,4.40
2023-04-15T10:13:26.290Z,4.30
2023-04-15T10:16:00.983Z,6.22
2023-04-15T10:18:29.543Z,4.10
2023-04-15T10:20:56.462Z,5.70
2023-04-15T10:23:24.490Z,5.53
2023-04-15T10:25:54.362Z,4.70
2023-04-15T10:28:23.089Z,4.70
2023-04-15T10:30:50.105Z,5.30
2023-04-15T10:33:23.578Z,5.30
2023-04-15T10:35:51.751Z,7.40
2023-04-15T10:38:39.282Z,4.35
2023-04-15T10:41:21.842Z,3.83
2023-04-15T10:44:01.229Z,5.63
2023-04-15T10:46:37.392Z,5.13
2023-04-15T10:49:17.044Z,4.80
2023-04-15T10:51:45.764Z,4.03
2023-04-15T10:54:39.365Z,4.70
2023-04-15T10:57:06.561Z,3.55
2023-04-15T10:59:37.089Z,3.40
2023-04-15T11:02:08.019Z,6.07
2023-04-15T11:04:53.778Z,3.15
2023-04-15T11:07:46.711Z,4.43
2023-04-15T11:10:25.909Z,4.15
2023-04-15T11:12:56.917Z,5.13
2023-04-15T11:15:31.054Z,3.83
2023-04-15T11:17:59.669Z,7.78
2023-04-15T11:20:27.238Z,7.47
2023-04-15T11:23:08.007Z,6.18
2023-04-15T11:25:41.812Z,5.68
2023-04-15T11:28:08.662Z,4.40
2023-04-15T11:30:37.636Z,6.35
2023-04-15T11:33:06.869Z,5.07
2023-04-15T11:35:33.689Z,4.22
2023-04-15T11:38:08.830Z,7.97
2023-04-15T11:40:36.232Z,3.58
2023-04-15T11:43:20.288Z,4.82
2023-04-15T11:45:57.428Z,3.97
2023-04-15T11:48:27.664Z,5.63
2023-04-15T11:50:56.356Z,3.28
2023-04-15T11:53:24.274Z,4.68
2023-04-15T11:55:53.689Z,3.00
2023-04-15T11:58:23.412Z,4.13
2023-04-15T12:00:54.908Z,3.78
2023-04-15T12:03:31.242Z,6.57
2023-04-15T12:06:08.841Z,4.57
2023-04-15T12:09:12.165Z,3.53
2023-04-15T12:11:45.986Z,5.22
2023-04-15T12:14:13.857Z,3.00
2023-04-15T12:16:48.377Z,4.15
2023-04-15T12:19:22.295Z,4.25
2023-04-15T12:21:49.909Z,3.78
2023-04-15T12:24:21.336Z,4.45
2023-04-15T12:26:53.621Z,4.00
2023-04-15T12:29:24.940Z,4.15
2023-04-15T12:32:14.127Z,3.08
2023-04-15T12:34:50.471Z,4.00
2023-04-15T12:37:17.793Z,3.45
2023-04-15T12:39:48.030Z,2.53
2023-04-15T12:42:16.846Z,3.72
2023-04-15T12:44:43.834Z,4.32
2023-04-15T12:47:11.660Z,5.55
2023-04-15T12:49:39.661Z,1.92
2023-04-15T12:52:06.749Z,2.85
2023-04-15T12:54:33.523Z,2.50
2023-04-15T12:57:00.931Z,2.45
2023-04-15T12:59:28.205Z,4.68
2023-04-15T13:01:55.463Z,3.28
2023-04-15T13:04:22.712Z,2.78
2023-04-15T13:06:49.740Z,2.25
2023-04-15T13:09:16.720Z,3.00
2023-04-15T13:11:44.014Z,3.13
2023-04-15T13:14:13.593Z,2.88
2023-04-15T13:16:40.389Z,5.35
2023-04-15T13:19:07.337Z,5.55
2023-04-15T13:21:35.708Z,4.30
2023-04-15T13:24:04.337Z,4.53
2023-04-15T13:26:31.748Z,4.60
2023-04-15T13:28:59.823Z,4.65
2023-04-15T13:31:27.129Z,5.00
2023-04-15T13:33:54.170Z,6.00
2023-04-15T13:36:21.088Z,4.88
2023-04-15T13:38:50.420Z,5.15
2023-04-15T13:41:17.994Z,3.55
2023-04-15T13:43:44.756Z,4.03
2023-04-15T13:46:11.590Z,3.92
2023-04-15T13:48:38.411Z,4.75
2023-04-15T13:51:05.107Z,6.10
2023-04-15T13:53:38.555Z,4.85
2023-04-15T13:56:07.287Z,3.28
2023-04-15T13:58:34.278Z,5.72
2023-04-15T14:01:02.588Z,3.40
2023-04-15T14:03:31.023Z,2.80
2023-04-15T14:05:58.488Z,4.32
2023-04-15T14:08:25.891Z,4.13
2023-04-15T14:10:52.677Z,3.30
2023-04-15T14:13:19.748Z,4.95
2023-04-15T14:15:47.101Z,5.38
2023-04-15T14:18:13.800Z,3.63
2023-04-15T14:20:40.624Z,4.22
2023-04-15T14:23:07.502Z,6.57
2023-04-15T14:25:34.373Z,5.97
2023-04-15T14:28:02.185Z,5.80
2023-04-15T14:30:29.067Z,5.63
2023-04-15T14:32:55.956Z,6.13
2023-04-15T14:35:24.534Z,6.40
2023-04-15T14:37:51.295Z,4.18
2023-04-15T14:40:18.113Z,5.45
2023-04-15T14:42:44.887Z,4.20
2023-04-15T14:45:11.977Z,4.75
2023-04-15T14:47:38.973Z,6.43
2023-04-15T14:50:07.391Z,5.90
2023-04-15T14:52:38.682Z,5.57
2023-04-15T14:55:13.201Z,5.28
2023-04-15T14:57:41.283Z,7.45
2023-04-15T15:00:09.951Z,7.18
2023-04-15T15:02:40.222Z,5.43
2023-04-15T15:05:08.847Z,5.30
2023-04-15T15:07:37.152Z,6.68
2023-04-15T15:10:04.491Z,5.68
2023-04-15T15:12:31.159Z,4.97
2023-04-15T15:14:57.847Z,7.55
2023-04-15T15:17:24.719Z,7.68
2023-04-15T15:19:51.705Z,5.15
2023-04-15T15:22:20.783Z,5.70
2023-04-15T15:24:48.219Z,6.40
2023-04-15T15:27:14.989Z,5.78
2023-04-15T15:29:41.700Z,7.03
2023-04-15T15:32:08.416Z,6.70
2023-04-15T15:34:35.139Z,4.63
2023-04-15T15:37:02.116Z,5.45
2023-04-15T15:39:28.860Z,5.78
2023-04-15T15:41:55.587Z,5.50
2023-04-15T15:44:22.356Z,5.10
2023-04-15T15:46:50.728Z,5.85
2023-04-15T15:49:17.713Z,5.35
2023-04-15T15:51:45.794Z,5.47
2023-04-15T15:54:12.779Z,4.88
2023-04-15T15:56:39.542Z,4.57
2023-04-15T15:59:06.477Z,6.10
2023-04-15T16:01:33.546Z,6.70
2023-04-15T16:04:00.725Z,6.03
2023-04-15T16:06:27.687Z,5.57
2023-04-15T16:08:54.347Z,4.07
2023-04-15T16:11:21.009Z,4.53
2023-04-15T16:13:47.708Z,5.43
2023-04-15T16:16:14.416Z,5.95
2023-04-15T16:18:41.250Z,5.72
2023-04-15T16:21:08.459Z,9.82
2023-04-15T16:23:36.613Z,7.25
2023-04-15T16:26:03.468Z,9.20
2023-04-15T16:28:30.301Z,8.23
2023-04-15T16:30:57.142Z,4.00
2023-04-15T16:33:24.126Z,7.97
2023-04-15T16:35:51.391Z,7.65
2023-04-15T16:38:18.219Z,7.50
2023-04-15T16:40:44.975Z,7.10
2023-04-15T16:43:11.677Z,11.15
2023-04-15T16:45:38.760Z,13.70
2023-04-15T16:48:05.888Z,10.85
2023-04-15T16:50:32.751Z,14.95
2023-04-15T16:52:59.501Z,10.30
2023-04-15T16:55:26.758Z,5.97
2023-04-15T16:58:02.305Z,8.40
2023-04-15T17:00:36.536Z,9.38
2023-04-15T17:03:03.604Z,9.27
2023-04-15T17:05:31.028Z,9.30
2023-04-15T17:07:58.240Z,7.15
2023-04-15T17:10:25.004Z,7.45
2023-04-15T17:12:52.324Z,6.80
2023-04-15T17:15:20.102Z,5.63
2023-04-15T17:17:46.879Z,4.10
2023-04-15T17:20:13.800Z,8.77
2023-04-15T17:22:40.759Z,6.20
2023-04-15T17:25:07.915Z,5.43
2023-04-15T17:27:34.589Z,7.93
2023-04-15T17:30:01.447Z,3.65
2023-04-15T17:32:34.587Z,4.53
2023-04-15T17:35:03.596Z,5.85
2023-04-15T17:37:30.259Z,5.68
2023-04-15T17:39:57.016Z,4.82
2023-04-15T17:42:23.665Z,5.38
2023-04-15T17:44:50.414Z,5.63
2023-04-15T17:47:17.183Z,4.88
2023-04-15T17:49:44.226Z,4.72
2023-04-15T17:52:11.073Z,4.22
2023-04-15T17:54:37.774Z,3.75
2023-04-15T17:57:04.757Z,11.27
2023-04-15T17:59:33.748Z,5.07
2023-04-15T18:02:00.633Z,6.55
2023-04-15T18:04:28.699Z,4.97
2023-04-15T18:06:55.442Z,4.82
2023-04-15T18:09:22.175Z,7.57
2023-04-15T18:11:49.166Z,4.47
2023-04-15T18:14:30.660Z,4.60
2023-04-15T18:17:00.560Z,4.90
2023-04-15T18:19:27.428Z,5.47
2023-04-15T18:21:54.373Z,5.85
2023-04-15T18:24:21.908Z,5.38
2023-04-15T18:26:49.308Z,5.50
2023-04-15T18:29:16.621Z,4.18
2023-04-15T18:31:43.619Z,6.20
2023-04-15T18:34:10.625Z,5.63
2023-04-15T18:36:37.333Z,5.97
2023-04-15T18:39:05.499Z,7.00
2023-04-15T18:41:32.420Z,5.25
2023-04-15T18:43:59.138Z,8.20
2023-04-15T18:46:25.852Z,3.83
2023-04-15T18:48:52.673Z,5.32
2023-04-15T18:51:19.350Z,5.32
2023-04-15T18:53:46.146Z,4.35
2023-04-15T18:56:12.931Z,4.18
2023-04-15T18:59:09.013Z,4.40
2023-04-15T19:01:26.454Z,6.07
2023-04-15T19:03:53.392Z,4.80
2023-04-15T19:06:20.530Z,7.25
2023-04-15T19:08:47.333Z,3.97
2023-04-15T19:11:14.091Z,7.15
2023-04-15T19:13:40.827Z,4.97
2023-04-15T19:16:07.776Z,6.65
2023-04-15T19:18:34.531Z,7.13
2023-04-15T19:21:01.322Z,9.15
2023-04-15T19:23:28.216Z,7.55
2023-04-15T19:25:54.869Z,9.00
2023-04-15T19:28:21.596Z,22.38
2023-04-15T19:30:48.299Z,11.65
2023-04-15T19:33:15.037Z,10.48
2023-04-15T19:35:41.775Z,19.27
2023-04-15T19:38:08.446Z,18.05
2023-04-15T19:40:35.280Z,17.10
2023-04-15T19:43:02.031Z,11.70
2023-04-15T19:45:28.805Z,16.83
2023-04-15T19:47:55.591Z,13.25
2023-04-15T19:50:26.006Z,9.95
2023-04-15T19:52:53.866Z,8.35
2023-04-15T19:55:21.104Z,10.43
2023-04-15T19:57:47.908Z,11.40
2023-04-15T20:00:14.815Z,8.18
2023-04-15T20:02:41.623Z,9.63
2023-04-15T20:05:10.063Z,11.02
2023-04-15T20:07:36.811Z,10.38
2023-04-15T20:10:08.566Z,11.45
2023-04-15T20:12:49.639Z,9.20
2023-04-15T20:15:18.613Z,10.20
2023-04-15T20:17:45.423Z,8.32
2023-04-15T20:20:12.196Z,8.10
2023-04-15T20:22:39.039Z,8.73
2023-04-15T20:25:06.496Z,8.68
2023-04-15T20:27:33.164Z,10.98
2023-04-15T20:29:59.920Z,12.35
2023-04-15T20:32:28.229Z,10.43
2023-04-15T20:34:55.178Z,8.95
2023-04-15T20:37:22.503Z,10.50
2023-04-15T20:39:49.494Z,19.02
2023-04-15T20:42:16.213Z,13.73
2023-04-15T20:44:42.931Z,32.25
2023-04-15T20:47:09.703Z,17.10
2023-04-15T20:49:37.973Z,14.93
2023-04-15T20:52:06.944Z,10.25
2023-04-15T20:54:34.104Z,12.23
2023-04-15T20:57:01.763Z,6.70
2023-04-15T20:59:28.595Z,6.22
2023-04-15T21:01:57.017Z,11.40
2023-04-15T21:04:24.488Z,3.85
2023-04-15T21:06:52.312Z,3.42
2023-04-15T21:09:19.139Z,1.90
2023-04-15T21:12:00.314Z,2.42
2023-04-15T21:14:27.626Z,3.20
2023-04-15T21:16:54.357Z,2.97
2023-04-15T21:19:21.047Z,3.63
2023-04-15T21:21:47.727Z,3.75
2023-04-15T21:24:14.421Z,4.65
2023-04-15T21:26:41.238Z,3.67
2023-04-15T21:29:11.234Z,3.38
2023-04-15T21:31:38.516Z,3.28
2023-04-15T21:34:05.456Z,3.05
2023-04-15T21:36:32.723Z,2.42
2023-04-15T21:38:59.966Z,3.80
2023-04-15T21:41:27.188Z,2.38
2023-04-15T21:43:54.114Z,3.30
2023-04-15T21:46:24.272Z,3.35
2023-04-15T21:48:53.441Z,2.80
2023-04-15T21:51:20.545Z,2.45
2023-04-15T21:53:47.411Z,1.48
2023-04-15T21:56:14.128Z,2.00
2023-04-15T21:58:40.848Z,3.08
2023-04-15T22:01:07.554Z,2.17
2023-04-15T22:03:35.498Z,1.70
2023-04-15T22:06:03.536Z,1.70
2023-04-15T22:08:38.268Z,2.17
2023-04-15T22:11:08.510Z,2.03
2023-04-15T22:13:35.721Z,7.10
2023-04-15T22:16:02.904Z,7.32
2023-04-15T22:18:29.648Z,6.90
2023-04-15T22:20:56.460Z,5.95
2023-04-15T22:23:23.115Z,2.70
2023-04-15T22:25:49.826Z,2.38
2023-04-15T22:28:16.625Z,2.38
2023-04-15T22:30:43.362Z,2.92
2023-04-15T22:33:10.660Z,3.33
2023-04-15T22:35:37.502Z,3.55
2023-04-15T22:38:05.061Z,4.45
2023-04-15T22:40:31.831Z,3.90
2023-04-15T22:42:59.138Z,5.95
2023-04-15T22:45:25.985Z,6.30
2023-04-15T22:47:52.683Z,5.10
2023-04-15T22:50:19.551Z,3.00
2023-04-15T22:52:48.099Z,3.33
2023-04-15T22:55:15.499Z,2.78
2023-04-15T22:57:42.218Z,3.60
2023-04-15T23:00:09.772Z,3.75
2023-04-15T23:02:36.591Z,3.80
2023-04-15T23:05:12.066Z,4.05
2023-04-15T23:07:40.350Z,3.70
2023-04-15T23:10:08.057Z,4.88
2023-04-15T23:12:34.984Z,5.43
2023-04-15T23:15:01.772Z,4.75
2023-04-15T23:17:28.664Z,5.53
2023-04-15T23:19:55.449Z,4.40
2023-04-15T23:22:22.155Z,3.80
2023-04-15T23:24:48.861Z,5.63
2023-04-15T23:27:17.546Z,5.03
2023-04-15T23:29:44.450Z,4.03
2023-04-15T23:32:11.082Z,3.67
2023-04-15T23:34:37.990Z,5.45
2023-04-15T23:37:04.781Z,4.05
2023-04-15T23:39:31.529Z,3.30
2023-04-15T23:41:58.473Z,3.00
2023-04-15T23:44:25.221Z,3.05
2023-04-15T23:46:52.030Z,4.85
2023-04-15T23:49:20.357Z,2.90
2023-04-15T23:51:47.322Z,3.53
2023-04-15T23:54:15.297Z,5.38
2023-04-15T23:56:41.981Z,3.72
2023-04-15T23:59:09.021Z,5.38
